Time;durP1;ratioP1;P1;durP2;ratioP2;P2;SDS_P1;SDS_P2;PMS_P1;PMS_P2;Temp;Humidity;BMP_temperature;BMP_pressure;BME280_temperature;BME280_humidity;BME280_pressure;Samples;Min_cycle;Max_cycle;Signal;HPM_P1;HPM_P2
2022/03/07 00:02:23;;;;;;;44.57;22.07;;;-1.00;93.50;;;;;;10409522;28;20036;-86
2022/03/07 00:07:24;;;;;;;41.50;20.93;;;-1.00;93.50;;;;;;10408856;28;20512;-86
2022/03/07 00:12:25;;;;;;;43.43;20.73;;;-1.00;94.00;;;;;;10408238;28;20412;-86
2022/03/07 00:17:25;;;;;;;47.73;22.63;;;-1.00;93.80;;;;;;10408876;28;20055;-86
2022/03/07 00:22:26;;;;;;;45.77;23.10;;;-1.00;93.80;;;;;;10391530;28;20032;-86
2022/03/07 00:27:27;;;;;;;49.37;23.00;;;-1.10;94.20;;;;;;10408985;28;20451;-86
2022/03/07 00:32:27;;;;;;;47.77;23.00;;;-1.10;94.20;;;;;;10408636;28;20370;-86
2022/03/07 00:37:28;;;;;;;45.27;22.17;;;-1.00;94.50;;;;;;10407438;28;20037;-86
2022/03/07 00:42:29;;;;;;;51.73;23.53;;;-1.10;94.10;;;;;;10408996;28;20033;-86
2022/03/07 00:47:30;;;;;;;47.33;23.07;;;-1.10;94.20;;;;;;10406863;28;20496;-88
2022/03/07 00:52:30;;;;;;;50.60;24.67;;;-1.10;94.10;;;;;;10390177;28;20024;-85
2022/03/07 00:57:31;;;;;;;44.83;23.20;;;-1.10;94.60;;;;;;10408090;28;20424;-85
2022/03/07 01:02:32;;;;;;;47.03;22.30;;;-1.10;95.20;;;;;;10406820;28;20381;-87
2022/03/07 01:07:32;;;;;;;45.87;22.50;;;-1.10;95.00;;;;;;10389525;28;20050;-85
2022/03/07 01:12:34;;;;;;;52.83;24.00;;;-1.10;95.10;;;;;;10389503;28;20188;-85
2022/03/07 01:17:36;;;;;;;45.97;22.33;;;-1.10;95.40;;;;;;10389341;28;20041;-86
2022/03/07 01:22:37;;;;;;;44.53;22.33;;;-1.10;95.90;;;;;;10407965;28;20034;-86
2022/03/07 01:27:38;;;;;;;52.93;24.40;;;-1.10;96.40;;;;;;10406682;28;20053;-86
2022/03/07 01:32:39;;;;;;;49.70;24.00;;;-1.10;95.70;;;;;;10406486;28;20033;-85
2022/03/07 01:37:40;;;;;;;46.30;23.43;;;-1.10;95.90;;;;;;10406173;28;20477;-86
2022/03/07 01:42:40;;;;;;;47.10;23.80;;;-1.10;96.40;;;;;;10388965;28;20055;-86
2022/03/07 01:47:42;;;;;;;53.50;22.70;;;-1.10;96.40;;;;;;10387909;28;20110;-86
2022/03/07 01:52:45;;;;;;;51.40;24.20;;;-1.20;96.40;;;;;;10396362;28;20025;-86
2022/03/07 01:57:47;;;;;;;47.10;23.20;;;-1.20;96.90;;;;;;10414827;28;20029;-85
2022/03/07 02:02:48;;;;;;;49.33;23.13;;;-1.20;97.40;;;;;;10413340;28;20448;-85
2022/03/07 02:07:49;;;;;;;46.13;21.40;;;-1.20;97.00;;;;;;10414442;28;20140;-86
2022/03/07 02:12:49;;;;;;;52.27;23.03;;;-1.20;97.20;;;;;;10414222;28;20029;-85
2022/03/07 02:17:50;;;;;;;47.03;22.60;;;-1.20;97.10;;;;;;10413905;28;20037;-85
2022/03/07 02:22:51;;;;;;;48.27;23.43;;;-1.20;95.70;;;;;;10413309;28;20036;-85
2022/03/07 02:27:51;;;;;;;42.97;21.27;;;-1.10;95.90;;;;;;10392929;28;20041;-88
2022/03/07 02:32:52;;;;;;;44.13;20.30;;;-1.10;95.70;;;;;;10413502;28;20041;-86
2022/03/07 02:37:53;;;;;;;39.97;20.23;;;-1.20;95.10;;;;;;10412225;28;20021;-85
2022/03/07 02:42:54;;;;;;;39.97;18.77;;;-1.20;95.00;;;;;;10413305;28;20125;-86
2022/03/07 02:47:54;;;;;;;39.27;19.00;;;-1.20;94.40;;;;;;10394360;28;20033;-85
2022/03/07 02:52:56;;;;;;;39.50;18.13;;;-1.20;94.20;;;;;;10412343;28;20072;-85
2022/03/07 02:57:57;;;;;;;39.50;18.63;;;-1.20;93.80;;;;;;10412629;28;20722;-86
2022/03/07 03:02:58;;;;;;;36.87;19.17;;;-1.30;94.10;;;;;;10411126;28;20033;-86
2022/03/07 03:07:59;;;;;;;38.70;18.50;;;-1.30;93.70;;;;;;10411196;28;20511;-86
2022/03/07 03:12:59;;;;;;;43.20;20.57;;;-1.30;93.00;;;;;;10412296;28;20075;-84
2022/03/07 03:18:00;;;;;;;37.17;18.87;;;-1.30;93.00;;;;;;10410537;28;20056;-84
2022/03/07 03:23:01;;;;;;;38.40;19.80;;;-1.30;93.00;;;;;;10412164;28;20033;-85
2022/03/07 03:28:01;;;;;;;39.50;20.20;;;-1.30;93.00;;;;;;10410269;28;20030;-84
2022/03/07 03:33:03;;;;;;;39.63;18.40;;;-1.30;92.80;;;;;;10411131;28;20026;-85
2022/03/07 03:38:05;;;;;;;38.80;17.87;;;-1.40;92.40;;;;;;10410990;28;20049;-85
2022/03/07 03:43:06;;;;;;;34.83;18.63;;;-1.40;92.60;;;;;;10392755;28;20163;-84
2022/03/07 03:48:07;;;;;;;38.03;19.30;;;-1.50;93.10;;;;;;10409248;28;20179;-83
2022/03/07 03:53:07;;;;;;;36.17;17.87;;;-1.60;93.70;;;;;;10410728;28;20105;-84
2022/03/07 03:58:08;;;;;;;39.13;20.10;;;-1.60;94.80;;;;;;10410376;28;20357;-84
2022/03/07 04:03:09;;;;;;;32.83;17.33;;;-1.70;95.30;;;;;;10408698;28;20032;-84
2022/03/07 04:08:09;;;;;;;37.03;18.67;;;-1.70;96.00;;;;;;10409567;28;20059;-84
2022/03/07 04:13:10;;;;;;;39.47;19.43;;;-1.70;96.40;;;;;;10409288;28;20033;-86
2022/03/07 04:18:11;;;;;;;36.93;19.73;;;-1.60;97.40;;;;;;10405885;28;20116;-85
2022/03/07 04:23:12;;;;;;;34.33;18.97;;;-1.60;97.40;;;;;;10408211;28;20044;-85
2022/03/07 04:28:13;;;;;;;33.93;17.30;;;-1.70;97.90;;;;;;10407839;28;20065;-84
2022/03/07 04:33:13;;;;;;;32.50;17.30;;;-1.70;98.50;;;;;;10408772;28;20072;-84
2022/03/07 04:38:15;;;;;;;41.80;18.50;;;-1.70;99.00;;;;;;10409729;28;20072;-84
2022/03/07 04:43:15;;;;;;;35.47;17.57;;;-1.70;99.60;;;;;;10390428;28;20045;-84
2022/03/07 04:48:16;;;;;;;36.30;18.93;;;-1.60;99.90;;;;;;10389802;28;20411;-85
2022/03/07 04:53:17;;;;;;;44.23;20.77;;;-1.70;99.90;;;;;;10403798;28;20588;-86
2022/03/07 04:58:18;;;;;;;37.07;18.97;;;-1.60;99.90;;;;;;10385615;28;20036;-86
2022/03/07 05:03:18;;;;;;;47.03;23.23;;;-1.60;99.90;;;;;;10401510;28;20087;-86
2022/03/07 05:08:19;;;;;;;44.70;22.77;;;-1.60;99.90;;;;;;10409858;28;20125;-84
2022/03/07 05:13:20;;;;;;;47.07;21.20;;;-1.60;99.90;;;;;;10399669;28;20524;-83
2022/03/07 05:18:20;;;;;;;45.40;21.17;;;-1.70;99.90;;;;;;10399452;28;20500;-84
2022/03/07 05:23:21;;;;;;;41.70;18.50;;;-1.70;99.90;;;;;;10405537;28;20034;-83
2022/03/07 05:28:22;;;;;;;41.50;20.23;;;-1.60;99.90;;;;;;10401663;28;20041;-84
2022/03/07 05:33:22;;;;;;;38.90;19.43;;;-1.70;99.90;;;;;;10413219;28;20079;-85
2022/03/07 05:38:23;;;;;;;39.43;19.47;;;-1.70;99.90;;;;;;10415516;28;20048;-83
2022/03/07 05:43:24;;;;;;;43.30;20.07;;;-1.70;99.90;;;;;;10397474;28;20029;-84
2022/03/07 05:48:25;;;;;;;36.67;19.00;;;-1.70;99.90;;;;;;10415687;28;20072;-84
2022/03/07 05:53:25;;;;;;;40.30;18.97;;;-1.80;99.90;;;;;;10415138;28;20017;-83
2022/03/07 05:58:32;;;;;;;42.47;22.13;;;-1.80;99.90;;;;;;10415253;28;20473;-83
2022/03/07 06:03:32;;;;;;;36.87;18.40;;;-1.70;99.90;;;;;;10415024;28;20037;-84
2022/03/07 06:08:33;;;;;;;37.63;18.97;;;-1.80;99.90;;;;;;10414152;28;20060;-83
2022/03/07 06:13:34;;;;;;;49.23;21.37;;;-1.70;99.90;;;;;;10414617;28;20113;-84
2022/03/07 06:18:35;;;;;;;43.70;21.63;;;-1.70;99.90;;;;;;10394781;28;20033;-85
2022/03/07 06:23:36;;;;;;;45.43;20.63;;;-1.50;99.90;;;;;;10403655;28;20033;-86
2022/03/07 06:28:37;;;;;;;44.53;21.43;;;-1.50;99.90;;;;;;10382920;28;20048;-84
2022/03/07 06:33:38;;;;;;;50.23;23.20;;;-1.40;99.90;;;;;;10409014;28;20040;-84
2022/03/07 06:38:39;;;;;;;41.10;20.70;;;-1.30;99.90;;;;;;10412508;28;20703;-84
2022/03/07 06:43:40;;;;;;;44.03;20.83;;;-1.20;99.90;;;;;;10416276;28;20030;-86
2022/03/07 06:48:41;;;;;;;41.33;19.87;;;-1.20;99.90;;;;;;10416641;28;20547;-86
2022/03/07 06:53:42;;;;;;;40.13;18.60;;;-1.00;99.90;;;;;;10412551;28;20025;-84
2022/03/07 06:58:44;;;;;;;40.50;19.60;;;-0.80;99.90;;;;;;10405390;28;20032;-84
2022/03/07 07:03:45;;;;;;;36.40;17.67;;;-0.60;99.90;;;;;;10406173;28;20112;-84
2022/03/07 07:08:46;;;;;;;38.83;19.60;;;-0.60;99.90;;;;;;10375060;28;20071;-85
2022/03/07 07:13:46;;;;;;;33.37;17.87;;;-0.50;99.90;;;;;;10380237;28;20021;-86
2022/03/07 07:18:47;;;;;;;34.57;17.33;;;-0.40;99.90;;;;;;10410979;28;20112;-85
2022/03/07 07:23:48;;;;;;;33.03;16.80;;;-0.20;99.90;;;;;;10393992;28;20052;-87
2022/03/07 07:28:48;;;;;;;31.83;16.00;;;-0.20;99.90;;;;;;10411861;28;20584;-85
2022/03/07 07:33:49;;;;;;;33.23;16.93;;;0.10;99.90;;;;;;10411365;28;20488;-84
2022/03/07 07:38:50;;;;;;;28.73;14.47;;;0.20;99.50;;;;;;10411309;28;20029;-85
2022/03/07 07:43:51;;;;;;;32.77;15.90;;;0.20;97.50;;;;;;10411092;28;20146;-84
2022/03/07 07:48:51;;;;;;;32.77;15.67;;;0.40;97.20;;;;;;10410233;28;20033;-84
2022/03/07 07:53:52;;;;;;;29.10;14.17;;;0.50;95.80;;;;;;10411424;28;20121;-84
2022/03/07 07:58:53;;;;;;;29.67;14.80;;;0.50;95.00;;;;;;10410106;28;20029;-84
2022/03/07 08:03:53;;;;;;;28.23;14.90;;;0.40;93.60;;;;;;10410966;28;20021;-84
2022/03/07 08:08:54;;;;;;;27.87;15.27;;;0.40;94.80;;;;;;10409558;28;20686;-85
2022/03/07 08:13:55;;;;;;;32.60;15.80;;;0.60;95.80;;;;;;10409514;28;20026;-84
2022/03/07 08:18:56;;;;;;;27.47;13.10;;;0.70;94.70;;;;;;10409692;28;20090;-85
2022/03/07 08:23:56;;;;;;;28.87;13.80;;;0.80;93.90;;;;;;10410194;28;20666;-86
2022/03/07 08:28:57;;;;;;;26.50;13.07;;;0.90;92.00;;;;;;10408994;28;20033;-85
2022/03/07 08:33:57;;;;;;;20.63;11.33;;;1.10;92.70;;;;;;10409004;28;20024;-84
2022/03/07 08:38:59;;;;;;;27.07;13.37;;;1.10;91.70;;;;;;10408787;28;20116;-84
2022/03/07 08:44:00;;;;;;;27.07;13.83;;;1.10;90.40;;;;;;10409414;28;20278;-84
2022/03/07 08:49:01;;;;;;;25.20;11.70;;;1.10;91.00;;;;;;10408476;28;20037;-85
2022/03/07 08:54:01;;;;;;;26.63;11.20;;;1.30;90.80;;;;;;10391282;28;20108;-84
2022/03/07 08:59:02;;;;;;;21.93;10.20;;;1.30;90.30;;;;;;10408109;28;20017;-84
2022/03/07 09:04:03;;;;;;;24.90;8.60;;;1.30;90.30;;;;;;10408378;28;20091;-86
2022/03/07 09:09:04;;;;;;;18.70;8.73;;;1.40;87.20;;;;;;10408456;28;20095;-85
2022/03/07 09:14:05;;;;;;;21.23;8.37;;;1.70;90.40;;;;;;10407930;28;20082;-84
2022/03/07 09:19:05;;;;;;;16.70;8.00;;;2.10;78.40;;;;;;10390512;28;20015;-86
2022/03/07 09:24:06;;;;;;;17.93;9.20;;;2.40;77.40;;;;;;10407740;28;20135;-85
2022/03/07 09:29:07;;;;;;;20.53;9.80;;;2.20;77.60;;;;;;10407958;28;20037;-85
2022/03/07 09:34:08;;;;;;;20.47;10.30;;;1.90;79.50;;;;;;10407789;28;20033;-83
2022/03/07 09:39:08;;;;;;;16.97;8.80;;;1.70;80.40;;;;;;10407479;28;20117;-83
2022/03/07 09:44:10;;;;;;;12.40;6.20;;;1.80;82.30;;;;;;10407930;28;20630;-86
2022/03/07 09:49:10;;;;;;;14.57;7.37;;;1.90;80.30;;;;;;10407752;28;20116;-84
2022/03/07 09:54:11;;;;;;;18.73;9.60;;;1.90;79.30;;;;;;10407393;28;20155;-86
2022/03/07 09:59:12;;;;;;;14.00;8.87;;;2.30;75.80;;;;;;10407256;28;20489;-85
2022/03/07 10:04:13;;;;;;;26.07;11.83;;;2.30;76.10;;;;;;10406657;28;20450;-83
2022/03/07 10:09:22;;;;;;;18.90;9.10;;;2.80;78.80;;;;;;10407303;28;20033;-83
2022/03/07 10:14:49;;;;;;;16.17;7.40;;;2.70;77.70;;;;;;10414372;28;20469;-84
2022/03/07 10:19:50;;;;;;;27.10;10.93;;;2.40;75.60;;;;;;10410288;28;20068;-84
2022/03/07 10:25:27;;;;;;;15.50;8.30;;;2.60;77.20;;;;;;10413944;28;20454;-84
2022/03/07 10:30:32;;;;;;;13.13;7.00;;;2.70;76.50;;;;;;10414046;28;20033;-84
2022/03/07 10:35:41;;;;;;;14.27;7.03;;;3.10;76.90;;;;;;10413175;28;20112;-84
2022/03/07 10:40:47;;;;;;;13.30;8.07;;;3.60;76.30;;;;;;10395976;28;20029;-84
2022/03/07 10:46:00;;;;;;;18.35;8.57;;;3.70;74.80;;;;;;10412980;28;20104;-83
2022/03/07 10:51:02;;;;;;;15.27;6.57;;;3.40;75.30;;;;;;10413067;28;20037;-85
2022/03/07 10:56:03;;;;;;;18.30;9.07;;;3.20;74.20;;;;;;10412805;28;20030;-82
2022/03/07 11:01:04;;;;;;;9.60;5.93;;;3.60;75.60;;;;;;10413044;28;20033;-84
2022/03/07 11:06:05;;;;;;;12.73;5.93;;;3.50;74.50;;;;;;10412272;28;20077;-86
2022/03/07 11:11:05;;;;;;;15.87;6.10;;;3.60;73.90;;;;;;10412461;28;20120;-83
2022/03/07 11:16:06;;;;;;;10.50;6.10;;;3.20;73.10;;;;;;10412401;28;20042;-85
2022/03/07 11:21:08;;;;;;;13.27;6.47;;;3.10;75.30;;;;;;10411228;28;20036;-84
2022/03/07 11:26:09;;;;;;;15.53;6.30;;;3.90;75.80;;;;;;10394037;28;20441;-85
2022/03/07 11:31:32;;;;;;;10.00;6.10;;;4.10;73.00;;;;;;10411381;28;20045;-83
2022/03/07 11:36:37;;;;;;;12.40;6.10;;;4.20;75.90;;;;;;10411485;28;20029;-83
2022/03/07 11:41:39;;;;;;;13.73;7.17;;;4.50;70.30;;;;;;10411531;28;20060;-86
2022/03/07 11:46:45;;;;;;;11.10;5.73;;;4.00;71.70;;;;;;10411281;28;20052;-85
2022/03/07 11:52:00;;;;;;;11.85;5.85;;;4.30;73.50;;;;;;10411204;28;20444;-84
2022/03/07 11:57:08;;;;;;;11.63;5.80;;;4.20;72.40;;;;;;10410701;28;20017;-83
2022/03/07 12:02:09;;;;;;;12.67;5.93;;;3.90;72.60;;;;;;10410102;28;20099;-83
2022/03/07 12:07:10;;;;;;;11.07;5.60;;;3.90;73.90;;;;;;10367904;28;20050;-83
2022/03/07 12:12:14;;;;;;;12.50;6.23;;;4.20;72.60;;;;;;10369052;28;20080;-84
2022/03/07 12:17:18;;;;;;;11.77;6.57;;;4.00;71.20;;;;;;10369078;28;20034;-86
2022/03/07 12:22:18;;;;;;;12.43;7.50;;;3.80;72.20;;;;;;10369127;28;20089;-83
2022/03/07 12:27:19;;;;;;;13.57;6.97;;;3.80;73.80;;;;;;10367021;28;20116;-85
2022/03/07 12:32:20;;;;;;;11.03;5.53;;;3.70;74.90;;;;;;10369020;28;20030;-84
2022/03/07 12:37:22;;;;;;;11.90;6.87;;;3.60;75.20;;;;;;10366335;28;20030;-83
2022/03/07 12:42:29;;;;;;;14.20;7.30;;;3.50;75.40;;;;;;10367907;28;20117;-83
2022/03/07 12:47:32;;;;;;;14.63;7.50;;;3.50;76.90;;;;;;10367902;28;20037;-85
2022/03/07 12:52:35;;;;;;;18.83;8.33;;;3.40;78.00;;;;;;10368250;28;20056;-83
2022/03/07 12:57:36;;;;;;;14.47;7.57;;;3.60;79.20;;;;;;10358807;28;20046;-85
2022/03/07 13:02:43;;;;;;;12.47;6.97;;;3.80;79.00;;;;;;10367517;28;20037;-83
2022/03/07 13:08:10;;;;;;;14.98;7.30;;;3.70;78.30;;;;;;10365785;28;20053;-83
2022/03/07 13:13:10;;;;;;;15.90;7.37;;;3.90;78.10;;;;;;10365172;28;20149;-83
2022/03/07 13:18:11;;;;;;;15.57;8.13;;;4.10;78.30;;;;;;10368282;28;20152;-83
2022/03/07 13:23:12;;;;;;;14.70;7.03;;;4.40;79.10;;;;;;10368232;28;20034;-83
2022/03/07 13:28:26;;;;;;;12.67;7.50;;;4.50;77.80;;;;;;10367585;28;20057;-85
2022/03/07 13:33:33;;;;;;;14.73;9.07;;;4.40;78.60;;;;;;10368020;28;20030;-83
2022/03/07 13:38:36;;;;;;;16.13;7.83;;;4.50;79.40;;;;;;10366813;28;20057;-83
2022/03/07 13:43:37;;;;;;;15.70;8.30;;;4.40;79.50;;;;;;10367870;28;20572;-84
2022/03/07 13:48:38;;;;;;;14.63;8.40;;;4.30;80.70;;;;;;10373812;28;20454;-83
2022/03/07 13:53:39;;;;;;;14.03;7.57;;;4.30;80.80;;;;;;10374270;28;20030;-84
2022/03/07 13:58:39;;;;;;;15.60;7.67;;;4.30;80.60;;;;;;10374517;28;20030;-84
2022/03/07 14:03:41;;;;;;;16.07;8.27;;;4.30;80.60;;;;;;10374127;28;20032;-83
2022/03/07 14:08:42;;;;;;;13.10;7.23;;;4.20;80.90;;;;;;10414475;28;20140;-83
2022/03/07 14:13:44;;;;;;;13.70;7.63;;;4.20;80.90;;;;;;10395106;28;20540;-83
2022/03/07 14:18:46;;;;;;;13.80;7.17;;;4.10;82.60;;;;;;10413570;28;20087;-84
2022/03/07 14:23:46;;;;;;;13.77;6.07;;;4.10;83.20;;;;;;10413992;28;20087;-85
2022/03/07 14:28:47;;;;;;;12.23;6.90;;;4.10;82.30;;;;;;10413838;28;20567;-83
2022/03/07 14:33:48;;;;;;;13.70;7.10;;;3.90;82.90;;;;;;10413418;28;20374;-82
2022/03/07 14:38:49;;;;;;;15.23;7.43;;;3.70;84.20;;;;;;10413454;28;20060;-84
2022/03/07 14:43:50;;;;;;;13.97;7.97;;;3.50;89.20;;;;;;10413387;28;20469;-84
2022/03/07 14:48:51;;;;;;;14.70;8.90;;;3.20;92.30;;;;;;10412927;28;20068;-84
2022/03/07 14:53:52;;;;;;;16.47;9.70;;;3.20;95.00;;;;;;10412031;28;20103;-83
2022/03/07 14:58:53;;;;;;;18.47;9.73;;;3.50;95.80;;;;;;10411481;28;20083;-83
2022/03/07 15:03:54;;;;;;;15.50;8.27;;;3.60;96.20;;;;;;10412243;28;20133;-82
2022/03/07 15:08:56;;;;;;;18.50;10.87;;;3.60;94.80;;;;;;10412440;28;20038;-83
2022/03/07 15:13:56;;;;;;;25.93;11.47;;;3.30;94.90;;;;;;10394627;28;20033;-83
2022/03/07 15:18:58;;;;;;;20.27;10.17;;;3.00;96.50;;;;;;10411718;28;20041;-82
2022/03/07 15:23:59;;;;;;;18.43;9.87;;;3.00;97.50;;;;;;10411644;28;20036;-83
2022/03/07 15:29:03;;;;;;;19.90;10.17;;;3.00;96.80;;;;;;10410787;28;20509;-83
2022/03/07 15:34:04;;;;;;;19.23;10.00;;;2.90;97.40;;;;;;10411316;28;20029;-83
2022/03/07 15:39:06;;;;;;;21.47;9.43;;;2.90;98.10;;;;;;10402262;28;20030;-84
2022/03/07 15:44:07;;;;;;;22.97;9.77;;;3.00;97.80;;;;;;10411512;28;20056;-84
2022/03/07 15:49:08;;;;;;;12.87;7.33;;;3.10;97.10;;;;;;10392789;28;20033;-82
2022/03/07 15:54:11;;;;;;;12.43;6.63;;;3.20;93.90;;;;;;10392319;28;20073;-84
2022/03/07 15:59:16;;;;;;;14.73;7.03;;;3.20;91.90;;;;;;10379545;28;20090;-79
2022/03/07 16:04:18;;;;;;;13.40;6.50;;;3.10;91.30;;;;;;10409397;28;20065;-80
2022/03/07 16:09:19;;;;;;;14.17;7.00;;;3.10;91.30;;;;;;10409808;28;20463;-80
2022/03/07 16:14:19;;;;;;;16.87;7.60;;;2.90;91.00;;;;;;10409258;28;20108;-80
2022/03/07 16:19:20;;;;;;;15.63;6.97;;;2.80;91.10;;;;;;10409502;28;20022;-80
2022/03/07 16:24:22;;;;;;;22.77;9.60;;;2.70;91.30;;;;;;10404539;28;20025;-83
2022/03/07 16:29:22;;;;;;;21.87;9.77;;;2.50;91.60;;;;;;10409217;28;20091;-82
2022/03/07 16:34:24;;;;;;;22.43;10.17;;;2.40;92.20;;;;;;10404176;28;20114;-83
2022/03/07 16:39:26;;;;;;;29.77;12.57;;;2.30;92.40;;;;;;10407704;28;20009;-84
2022/03/07 16:44:26;;;;;;;34.23;13.37;;;2.00;92.90;;;;;;10388970;28;20140;-82
2022/03/07 16:49:27;;;;;;;31.33;13.33;;;1.70;93.90;;;;;;10407780;28;20054;-83
2022/03/07 16:54:28;;;;;;;30.40;14.93;;;1.40;95.10;;;;;;10403336;28;20500;-82
2022/03/07 16:59:31;;;;;;;35.63;14.90;;;1.30;96.00;;;;;;10402234;28;20561;-85
2022/03/07 17:04:34;;;;;;;33.90;16.13;;;1.00;98.10;;;;;;10404181;28;20625;-81
2022/03/07 17:09:35;;;;;;;29.77;13.80;;;0.90;99.90;;;;;;10405828;28;20050;-81
2022/03/07 17:14:36;;;;;;;33.73;14.60;;;0.90;99.90;;;;;;10388240;28;20026;-82
2022/03/07 17:19:37;;;;;;;31.07;14.63;;;1.00;99.90;;;;;;10406803;28;20401;-82
2022/03/07 17:24:38;;;;;;;34.67;13.93;;;1.30;99.90;;;;;;10415723;28;20257;-81
2022/03/07 17:29:39;;;;;;;29.50;14.03;;;1.40;99.90;;;;;;10414973;28;20148;-85
2022/03/07 17:34:40;;;;;;;24.47;11.80;;;1.60;99.90;;;;;;10413370;28;20041;-82
2022/03/07 17:39:42;;;;;;;26.10;12.80;;;1.80;99.90;;;;;;10413935;28;20041;-84
2022/03/07 17:44:43;;;;;;;32.00;14.23;;;1.80;99.90;;;;;;10413388;28;20535;-82
2022/03/07 17:49:43;;;;;;;37.70;17.03;;;1.80;99.90;;;;;;10413035;28;20050;-82
2022/03/07 17:54:44;;;;;;;42.20;18.87;;;1.70;99.90;;;;;;10413870;28;20037;-82
2022/03/07 17:59:45;;;;;;;32.30;15.43;;;1.70;99.90;;;;;;10412877;28;20032;-82
2022/03/07 18:04:46;;;;;;;33.20;14.63;;;1.70;99.90;;;;;;10412480;28;20083;-82
2022/03/07 18:09:46;;;;;;;33.03;13.37;;;1.70;99.90;;;;;;10414067;28;20053;-84
2022/03/07 18:14:48;;;;;;;30.17;14.73;;;1.70;99.90;;;;;;10411534;28;20041;-82
2022/03/07 18:19:48;;;;;;;30.43;14.07;;;1.60;99.90;;;;;;10412342;28;20528;-82
2022/03/07 18:24:49;;;;;;;30.57;15.50;;;1.60;99.90;;;;;;10413461;28;20033;-84
2022/03/07 18:29:50;;;;;;;35.57;15.60;;;1.70;99.90;;;;;;10409745;28;20107;-82
2022/03/07 18:34:51;;;;;;;32.17;14.33;;;1.70;99.90;;;;;;10401308;28;20473;-83
2022/03/07 18:39:52;;;;;;;33.73;15.23;;;1.80;99.90;;;;;;10409416;28;20032;-84
2022/03/07 18:44:53;;;;;;;31.33;14.90;;;1.80;99.90;;;;;;10412419;28;20040;-84
2022/03/07 18:49:54;;;;;;;34.93;16.73;;;1.70;99.90;;;;;;10386191;28;20044;-81
2022/03/07 18:54:54;;;;;;;34.87;16.77;;;1.70;99.90;;;;;;10406153;28;20377;-82
2022/03/07 18:59:55;;;;;;;35.57;15.30;;;1.70;99.90;;;;;;10409985;28;20029;-83
2022/03/07 19:04:56;;;;;;;31.47;14.57;;;1.60;99.90;;;;;;10409585;28;20114;-82
2022/03/07 19:09:56;;;;;;;36.53;15.80;;;1.50;99.90;;;;;;10410737;28;20045;-85
2022/03/07 19:14:57;;;;;;;38.17;16.53;;;1.40;99.90;;;;;;10393580;28;20025;-82
2022/03/07 19:19:58;;;;;;;39.30;16.83;;;1.30;99.90;;;;;;10410788;28;20485;-85
2022/03/07 19:24:58;;;;;;;34.27;16.23;;;1.30;99.90;;;;;;10410554;28;20028;-83
2022/03/07 19:29:59;;;;;;;35.47;17.33;;;1.40;99.90;;;;;;10410696;28;20037;-83
2022/03/07 19:35:00;;;;;;;39.00;18.00;;;1.30;99.90;;;;;;10408132;28;20033;-83
2022/03/07 19:40:01;;;;;;;35.37;16.83;;;1.30;99.90;;;;;;10406698;28;20035;-81
2022/03/07 19:45:04;;;;;;;37.50;16.80;;;1.40;99.90;;;;;;10407853;28;20404;-81
2022/03/07 19:50:06;;;;;;;39.13;19.10;;;1.30;99.90;;;;;;10399668;28;20041;-82
2022/03/07 19:55:07;;;;;;;36.43;18.13;;;1.30;99.90;;;;;;10400263;28;20120;-82
2022/03/07 20:00:13;;;;;;;39.17;18.47;;;1.20;99.90;;;;;;10404271;28;20029;-82
2022/03/07 20:05:13;;;;;;;44.38;18.00;;;1.10;99.90;;;;;;10404939;28;20082;-82
2022/03/07 20:10:14;;;;;;;36.70;15.70;;;0.90;99.90;;;;;;10397691;28;20037;-82
2022/03/07 20:15:17;;;;;;;39.30;17.63;;;0.90;99.90;;;;;;10402961;28;20113;-83
2022/03/07 20:20:18;;;;;;;35.90;15.63;;;0.80;99.90;;;;;;10406587;28;20064;-84
2022/03/07 20:25:19;;;;;;;36.97;16.17;;;0.70;99.90;;;;;;10409328;28;20444;-82
2022/03/07 20:30:20;;;;;;;41.63;17.47;;;0.60;99.90;;;;;;10399218;28;20060;-84
2022/03/07 20:35:21;;;;;;;40.57;17.97;;;0.50;99.90;;;;;;10395269;28;20124;-84
2022/03/07 20:40:21;;;;;;;35.87;16.23;;;0.50;99.90;;;;;;10408063;28;20025;-82
2022/03/07 20:45:23;;;;;;;43.07;18.57;;;0.50;99.90;;;;;;10407180;28;20057;-81
2022/03/07 20:51:07;;;;;;;43.40;19.43;;;0.40;99.90;;;;;;10404402;28;20033;-82
2022/03/07 20:56:08;;;;;;;44.73;20.50;;;0.30;99.90;;;;;;10398305;28;20440;-82
2022/03/07 21:01:09;;;;;;;44.93;20.10;;;0.30;99.90;;;;;;10400642;28;20101;-81
2022/03/07 21:06:09;;;;;;;46.90;19.57;;;0.30;99.90;;;;;;10393607;28;20493;-82
2022/03/07 21:11:10;;;;;;;36.70;18.73;;;0.30;99.90;;;;;;10396874;28;20052;-82
2022/03/07 21:16:10;;;;;;;41.63;18.07;;;0.30;99.90;;;;;;10399767;28;20037;-81
2022/03/07 21:21:11;;;;;;;43.60;19.93;;;0.40;99.90;;;;;;10378896;28;20026;-82
2022/03/07 21:26:12;;;;;;;36.53;17.30;;;0.40;99.90;;;;;;10401069;28;20033;-82
2022/03/07 21:31:13;;;;;;;43.73;19.13;;;0.50;99.90;;;;;;10404205;28;20484;-82
2022/03/07 21:36:14;;;;;;;50.60;21.17;;;0.40;99.90;;;;;;10397160;28;20041;-83
2022/03/07 21:41:15;;;;;;;51.10;21.53;;;0.30;99.90;;;;;;10391116;28;20040;-84
2022/03/07 21:46:16;;;;;;;50.70;22.80;;;0.20;99.90;;;;;;10380048;28;20370;-83
2022/03/07 21:51:18;;;;;;;55.10;22.27;;;0.20;99.90;;;;;;10404037;28;20099;-83
2022/03/07 21:56:18;;;;;;;50.83;21.47;;;0.20;99.90;;;;;;10387976;28;20078;-82
2022/03/07 22:01:19;;;;;;;53.27;21.87;;;0.20;99.90;;;;;;10399730;28;20555;-83
2022/03/07 22:06:20;;;;;;;51.00;21.57;;;0.20;99.90;;;;;;10402872;28;20045;-82
2022/03/07 22:11:21;;;;;;;45.93;20.00;;;0.20;99.90;;;;;;10404886;28;20045;-83
2022/03/07 22:16:21;;;;;;;47.57;19.60;;;0.30;99.90;;;;;;10405238;28;20045;-82
2022/03/07 22:21:22;;;;;;;49.93;20.40;;;0.30;99.90;;;;;;10406627;28;20516;-86
2022/03/07 22:26:23;;;;;;;50.33;22.07;;;0.40;99.90;;;;;;10396391;28;20069;-82
2022/03/07 22:31:24;;;;;;;50.60;22.23;;;0.40;99.90;;;;;;10413042;28;20038;-84
2022/03/07 22:36:25;;;;;;;63.50;25.07;;;0.40;99.90;;;;;;10413212;28;20025;-86
2022/03/07 22:41:25;;;;;;;74.10;31.33;;;0.40;99.90;;;;;;10413820;28;20033;-83
2022/03/07 22:46:26;;;;;;;72.67;30.33;;;0.40;99.90;;;;;;10395598;28;20025;-82
2022/03/07 22:51:27;;;;;;;58.20;26.13;;;0.40;99.90;;;;;;10412875;28;20041;-85
2022/03/07 22:56:27;;;;;;;58.60;25.13;;;0.40;99.90;;;;;;10412549;28;20033;-86
2022/03/07 23:01:28;;;;;;;53.07;23.20;;;0.40;99.90;;;;;;10412263;28;20037;-83
2022/03/07 23:11:49;;;;;;;46.37;19.70;;;0.30;99.90;;;;;;10412332;28;20083;-82
2022/03/07 23:16:49;;;;;;;53.83;22.03;;;0.20;99.90;;;;;;10410880;28;20030;-86
2022/03/07 23:21:50;;;;;;;47.37;21.93;;;0.20;99.90;;;;;;10410565;28;20030;-85
2022/03/07 23:26:51;;;;;;;47.10;21.47;;;0.10;99.90;;;;;;10412052;28;20040;-83
2022/03/07 23:31:52;;;;;;;48.27;20.93;;;0.10;99.90;;;;;;10411097;28;20392;-83
2022/03/07 23:36:53;;;;;;;44.73;18.83;;;0.00;99.90;;;;;;10410848;28;20032;-87
2022/03/07 23:41:54;;;;;;;39.87;18.10;;;0.00;99.90;;;;;;10411517;28;20045;-83
2022/03/07 23:46:54;;;;;;;39.73;17.83;;;0.00;99.90;;;;;;10410367;28;20150;-83
2022/03/07 23:51:55;;;;;;;44.03;19.47;;;0.00;99.90;;;;;;10410185;28;20106;-83
2022/03/07 23:56:56;;;;;;;45.43;18.33;;;-0.10;99.90;;;;;;10410585;28;20496;-84
